Time;durP1;ratioP1;P1;durP2;ratioP2;P2;SDS_P1;SDS_P2;PMS_P1;PMS_P2;Temp;Humidity;BMP_temperature;BMP_pressure;BME280_temperature;BME280_humidity;BME280_pressure;Samples;Min_cycle;Max_cycle;Signal;HPM_P1;HPM_P2
2020/12/04 00:00:38;;;;;;;14.83;11.03;;;5.00;93.80;;;;;;4862547;29;20764;-84
2020/12/04 00:03:05;;;;;;;12.90;9.77;;;5.00;93.90;;;;;;4890004;29;20039;-84
2020/12/04 00:05:32;;;;;;;14.85;10.23;;;5.00;93.90;;;;;;4889062;29;20064;-85
2020/12/04 00:08:01;;;;;;;15.00;9.73;;;5.00;93.80;;;;;;4866025;29;20047;-84
2020/12/04 00:10:27;;;;;;;14.07;8.90;;;5.00;93.70;;;;;;4872278;29;20401;-84
2020/12/04 00:12:54;;;;;;;15.20;10.35;;;5.00;93.80;;;;;;4881209;29;20420;-84
2020/12/04 00:15:21;;;;;;;13.87;9.23;;;5.00;93.60;;;;;;4880075;29;20484;-84
2020/12/04 00:17:47;;;;;;;17.07;9.90;;;5.00;93.70;;;;;;4879819;29;20044;-84
2020/12/04 00:20:14;;;;;;;11.27;8.10;;;5.10;93.60;;;;;;4876591;29;20777;-83
2020/12/04 00:22:41;;;;;;;11.83;9.23;;;5.10;93.60;;;;;;4887774;29;20052;-84
2020/12/04 00:25:07;;;;;;;13.80;9.23;;;5.00;93.60;;;;;;4892913;29;20043;-83
2020/12/04 00:27:37;;;;;;;14.73;9.32;;;5.10;93.50;;;;;;4893949;29;20614;-86
2020/12/04 00:30:07;;;;;;;12.90;9.35;;;5.00;93.40;;;;;;4857866;29;20053;-84
2020/12/04 00:32:34;;;;;;;10.97;8.17;;;5.10;93.30;;;;;;4895489;29;20424;-84
2020/12/04 00:35:00;;;;;;;10.97;8.37;;;5.10;93.20;;;;;;4849962;29;20064;-84
2020/12/04 00:37:30;;;;;;;12.03;8.50;;;5.10;93.20;;;;;;4893108;29;20052;-85
2020/12/04 00:39:57;;;;;;;10.38;8.25;;;5.10;93.20;;;;;;4864152;29;20048;-84
2020/12/04 00:42:24;;;;;;;11.10;8.48;;;5.10;93.30;;;;;;4863176;29;20032;-84
2020/12/04 00:44:53;;;;;;;13.87;8.10;;;5.10;93.20;;;;;;4864942;29;20052;-84
2020/12/04 00:47:20;;;;;;;10.75;8.55;;;5.10;93.30;;;;;;4870499;29;20729;-84
2020/12/04 00:49:47;;;;;;;10.93;8.80;;;5.10;93.20;;;;;;4893249;29;20044;-84
2020/12/04 00:52:14;;;;;;;10.98;7.82;;;5.10;93.20;;;;;;4877901;29;20134;-84
2020/12/04 00:54:41;;;;;;;12.52;8.68;;;5.10;93.10;;;;;;4861440;29;20063;-84
2020/12/04 00:57:11;;;;;;;11.70;8.73;;;5.10;93.10;;;;;;4860516;29;20045;-84
2020/12/04 00:59:47;;;;;;;11.32;8.52;;;5.10;93.10;;;;;;4850070;29;20037;-84
2020/12/04 01:02:13;;;;;;;13.20;8.60;;;5.10;93.20;;;;;;4875147;29;20029;-84
2020/12/04 01:04:46;;;;;;;12.10;8.90;;;5.10;93.10;;;;;;4857332;29;20052;-85
2020/12/04 01:07:13;;;;;;;12.75;8.48;;;5.10;93.00;;;;;;4872199;29;20064;-83
2020/12/04 01:09:40;;;;;;;12.77;9.52;;;5.10;93.00;;;;;;4876190;29;20056;-84
2020/12/04 01:12:06;;;;;;;14.70;9.75;;;5.10;93.00;;;;;;4876706;29;20056;-85
2020/12/04 01:14:33;;;;;;;11.73;8.02;;;5.10;93.00;;;;;;4889043;29;20059;-84
2020/12/04 01:17:02;;;;;;;10.95;8.35;;;5.10;93.00;;;;;;4858913;29;20041;-84
2020/12/04 01:19:29;;;;;;;13.05;9.15;;;5.10;93.00;;;;;;4876085;29;20043;-84
2020/12/04 01:21:55;;;;;;;11.98;8.73;;;5.10;93.10;;;;;;4862710;29;20033;-84
2020/12/04 01:24:22;;;;;;;11.70;8.77;;;5.10;93.00;;;;;;4860543;29;20044;-83
2020/12/04 01:26:49;;;;;;;11.17;8.07;;;5.10;93.00;;;;;;4887122;29;20032;-88
2020/12/04 01:29:16;;;;;;;12.17;8.50;;;5.10;92.90;;;;;;4845731;29;20048;-88
2020/12/04 01:31:49;;;;;;;11.50;8.88;;;5.10;93.00;;;;;;4847503;29;20045;-83
2020/12/04 01:34:15;;;;;;;;;;;5.10;93.10;;;;;;4873305;29;20040;-84
2020/12/04 01:36:44;;;;;;;10.68;8.65;;;5.10;93.10;;;;;;4846532;29;19924;-83
2020/12/04 01:39:11;;;;;;;12.00;8.50;;;5.10;93.10;;;;;;4886786;29;20061;-84
2020/12/04 01:41:38;;;;;;;12.60;8.20;;;5.10;93.00;;;;;;4894770;29;20071;-85
2020/12/04 01:44:05;;;;;;;11.30;8.35;;;5.10;93.00;;;;;;4845987;29;20506;-84
2020/12/04 01:46:32;;;;;;;9.93;7.93;;;5.10;92.90;;;;;;4893155;29;20767;-84
2020/12/04 01:48:59;;;;;;;10.20;8.18;;;5.10;93.00;;;;;;4891310;29;20037;-89
2020/12/04 01:51:27;;;;;;;11.57;7.97;;;5.10;93.00;;;;;;4877231;29;20033;-88
2020/12/04 01:53:54;;;;;;;10.52;7.80;;;5.10;92.90;;;;;;4876108;29;20424;-89
2020/12/04 01:56:20;;;;;;;10.45;7.95;;;5.10;93.00;;;;;;4859707;29;20033;-83
2020/12/04 01:58:47;;;;;;;11.80;8.05;;;5.10;93.10;;;;;;4885999;29;20057;-84
2020/12/04 02:01:16;;;;;;;10.10;7.70;;;5.10;93.10;;;;;;4878717;29;20087;-83
2020/12/04 02:03:43;;;;;;;10.85;7.57;;;5.20;93.10;;;;;;4868924;29;20030;-84
2020/12/04 02:06:20;;;;;;;9.30;7.05;;;5.20;93.10;;;;;;4872459;29;20400;-84
2020/12/04 02:09:04;;;;;;;8.90;6.53;;;5.10;92.90;;;;;;4870579;29;20033;-83
2020/12/04 02:11:32;;;;;;;11.75;8.00;;;5.10;93.00;;;;;;4857256;29;20045;-83
2020/12/04 02:14:04;;;;;;;12.63;7.50;;;5.10;93.00;;;;;;4891861;29;20472;-84
2020/12/04 02:16:38;;;;;;;9.30;7.28;;;5.10;93.10;;;;;;4859468;29;20049;-83
2020/12/04 02:19:09;;;;;;;12.37;7.27;;;5.10;93.10;;;;;;4871362;29;20041;-88
2020/12/04 02:21:36;;;;;;;11.70;8.37;;;5.10;93.20;;;;;;4860638;29;20065;-89
2020/12/04 02:24:03;;;;;;;9.98;7.47;;;5.10;93.20;;;;;;4860773;29;20404;-88
2020/12/04 02:26:34;;;;;;;10.02;7.60;;;5.10;93.30;;;;;;4861443;29;20040;-89
2020/12/04 02:29:03;;;;;;;12.02;8.35;;;5.10;93.40;;;;;;4862218;29;20032;-90
2020/12/04 02:31:31;;;;;;;8.60;6.73;;;5.10;93.50;;;;;;4855521;29;20036;-88
2020/12/04 02:33:57;;;;;;;11.60;7.67;;;5.10;93.50;;;;;;4888455;29;20045;-90
2020/12/04 02:36:24;;;;;;;13.57;8.00;;;5.00;93.60;;;;;;4861333;29;20049;-90
2020/12/04 02:38:50;;;;;;;11.70;7.93;;;5.10;93.70;;;;;;4863788;29;20764;-89
2020/12/04 02:41:17;;;;;;;10.17;7.87;;;5.10;93.80;;;;;;4848489;29;20045;-89
2020/12/04 02:43:43;;;;;;;10.38;8.13;;;5.10;93.80;;;;;;4869442;29;20072;-90
2020/12/04 02:46:10;;;;;;;11.40;7.77;;;5.00;93.80;;;;;;4863805;29;20040;-90
2020/12/04 02:48:37;;;;;;;10.20;7.75;;;5.10;93.90;;;;;;4859717;29;20044;-90
2020/12/04 02:51:07;;;;;;;9.48;7.00;;;5.00;93.90;;;;;;4859733;29;20040;-90
2020/12/04 02:53:34;;;;;;;10.65;7.65;;;5.00;93.90;;;;;;4863152;29;20471;-90
2020/12/04 02:56:01;;;;;;;11.85;8.15;;;5.00;93.90;;;;;;4844879;29;20111;-92
2020/12/04 02:58:27;;;;;;;9.83;6.90;;;5.10;93.90;;;;;;4866239;29;20045;-92
2020/12/04 03:00:54;;;;;;;11.87;7.57;;;5.00;94.00;;;;;;4849080;29;20041;-93
2020/12/04 03:03:21;;;;;;;9.93;7.53;;;5.00;94.00;;;;;;4849697;29;20053;-92
2020/12/04 03:05:47;;;;;;;9.73;7.00;;;5.00;94.00;;;;;;4865415;29;20118;-93
2020/12/04 03:08:14;;;;;;;9.20;6.80;;;5.00;94.00;;;;;;4863616;29;20479;-90
2020/12/04 03:10:41;;;;;;;9.93;6.70;;;5.00;94.00;;;;;;4858858;29;20052;-93
2020/12/04 03:13:08;;;;;;;9.37;7.30;;;5.00;93.90;;;;;;4850565;29;20060;-91
2020/12/04 03:15:35;;;;;;;9.25;6.88;;;5.00;94.00;;;;;;4850511;29;20048;-91
2020/12/04 03:18:01;;;;;;;10.70;7.67;;;5.00;93.90;;;;;;4852365;29;20055;-89
2020/12/04 03:20:28;;;;;;;8.63;6.63;;;5.00;93.90;;;;;;4865123;29;20040;-90
2020/12/04 03:22:54;;;;;;;8.20;6.40;;;5.00;93.90;;;;;;4851978;29;20041;-89
2020/12/04 03:25:21;;;;;;;10.67;7.80;;;5.00;93.90;;;;;;4861432;29;20385;-91
2020/12/04 03:27:47;;;;;;;10.83;7.80;;;5.00;93.90;;;;;;4846844;29;20040;-90
2020/12/04 03:30:14;;;;;;;9.03;6.40;;;5.00;94.00;;;;;;4866156;29;20044;-89
2020/12/04 03:32:41;;;;;;;9.37;7.13;;;5.10;94.00;;;;;;4843830;29;20049;-91
2020/12/04 03:35:08;;;;;;;10.00;7.27;;;5.10;94.00;;;;;;4879181;29;20045;-90
2020/12/04 03:37:40;;;;;;;11.30;8.40;;;5.00;94.00;;;;;;4863906;29;20788;-91
2020/12/04 03:40:07;;;;;;;9.70;7.23;;;5.00;94.00;;;;;;4863235;29;20400;-91
2020/12/04 03:42:33;;;;;;;10.80;7.60;;;5.00;94.10;;;;;;4849867;29;20048;-92
2020/12/04 03:45:00;;;;;;;10.68;7.97;;;5.00;94.20;;;;;;4858177;29;20048;-89
2020/12/04 03:47:26;;;;;;;11.70;7.87;;;5.00;94.20;;;;;;4862832;29;20041;-90
2020/12/04 03:49:53;;;;;;;10.43;7.20;;;5.00;94.20;;;;;;4847161;29;20040;-92
2020/12/04 03:52:20;;;;;;;10.65;8.05;;;5.00;94.20;;;;;;4863079;29;20036;-92
2020/12/04 03:54:47;;;;;;;10.10;7.38;;;5.00;94.20;;;;;;4849552;29;20048;-91
2020/12/04 03:57:15;;;;;;;10.23;7.00;;;5.00;94.10;;;;;;4872678;29;20049;-91
2020/12/04 03:59:41;;;;;;;10.90;8.20;;;5.10;94.10;;;;;;4862665;29;20052;-92
2020/12/04 04:02:08;;;;;;;11.10;7.55;;;5.10;94.10;;;;;;4864856;29;20060;-90
2020/12/04 04:04:34;;;;;;;9.60;6.90;;;5.10;94.00;;;;;;4850859;29;20060;-90
2020/12/04 04:07:01;;;;;;;9.30;6.40;;;5.10;94.00;;;;;;4855322;29;20045;-83
2020/12/04 04:09:28;;;;;;;9.55;7.05;;;5.10;93.90;;;;;;4875252;29;20037;-83
2020/12/04 04:11:54;;;;;;;8.80;6.20;;;5.10;93.80;;;;;;4862114;29;20881;-83
2020/12/04 04:14:21;;;;;;;8.73;6.57;;;5.10;93.70;;;;;;4878747;29;20044;-83
2020/12/04 04:16:47;;;;;;;7.90;5.90;;;5.10;93.80;;;;;;4862970;29;20055;-83
2020/12/04 04:19:14;;;;;;;8.30;6.37;;;5.10;93.90;;;;;;4893290;29;20029;-83
2020/12/04 04:21:41;;;;;;;8.98;6.57;;;5.20;93.90;;;;;;4859788;29;20048;-83
2020/12/04 04:24:10;;;;;;;8.60;6.38;;;5.10;93.90;;;;;;4874013;29;20040;-83
2020/12/04 04:26:38;;;;;;;10.38;6.60;;;5.10;93.90;;;;;;4872207;29;20033;-83
2020/12/04 04:29:05;;;;;;;8.88;7.03;;;5.10;94.00;;;;;;4855242;29;20045;-84
2020/12/04 04:31:31;;;;;;;9.15;6.70;;;5.10;94.00;;;;;;4874448;29;20818;-91
2020/12/04 04:33:58;;;;;;;10.20;6.13;;;5.10;94.10;;;;;;4848650;29;20041;-90
2020/12/04 04:36:25;;;;;;;7.93;6.25;;;5.10;94.10;;;;;;4859704;29;20045;-90
2020/12/04 04:38:51;;;;;;;8.40;6.53;;;5.10;94.20;;;;;;4854923;29;20295;-92
2020/12/04 04:41:18;;;;;;;9.10;6.93;;;5.10;94.20;;;;;;4870828;29;20056;-93
2020/12/04 04:43:45;;;;;;;7.45;5.90;;;5.10;94.20;;;;;;4867309;29;20028;-92
2020/12/04 04:46:47;;;;;;;8.02;5.80;;;5.10;94.20;;;;;;4861098;29;20032;-91
2020/12/04 04:49:29;;;;;;;8.45;6.30;;;5.10;94.10;;;;;;4848729;29;20045;-93
2020/12/04 04:51:57;;;;;;;7.90;6.37;;;5.10;94.10;;;;;;4862273;29;20106;-92
2020/12/04 04:54:25;;;;;;;8.35;6.32;;;5.10;94.10;;;;;;4860651;29;20045;-93
2020/12/04 04:56:52;;;;;;;8.00;6.03;;;5.20;94.10;;;;;;4846692;29;20491;-90
2020/12/04 04:59:20;;;;;;;8.93;6.40;;;5.20;94.10;;;;;;4860301;29;20048;-90
2020/12/04 05:01:48;;;;;;;8.82;6.50;;;5.20;94.00;;;;;;4863329;29;20041;-91
2020/12/04 05:04:16;;;;;;;7.63;6.03;;;5.20;93.90;;;;;;4848613;29;20510;-90
2020/12/04 05:06:46;;;;;;;6.37;5.03;;;5.20;93.80;;;;;;4863635;29;20059;-90
2020/12/04 05:09:20;;;;;;;7.18;5.53;;;5.20;93.70;;;;;;4857211;29;20044;-89
2020/12/04 05:12:00;;;;;;;8.70;5.97;;;5.20;93.80;;;;;;4894252;29;20044;-90
2020/12/04 05:14:29;;;;;;;9.45;6.35;;;5.20;93.70;;;;;;4878839;29;20882;-88
2020/12/04 05:16:57;;;;;;;7.90;5.53;;;5.20;93.60;;;;;;4878564;29;20044;-89
2020/12/04 05:19:36;;;;;;;8.50;5.75;;;5.20;93.60;;;;;;4852869;29;20048;-90
2020/12/04 05:22:17;;;;;;;9.25;6.40;;;5.10;93.70;;;;;;4864421;29;20052;-91
2020/12/04 05:24:45;;;;;;;8.43;5.63;;;5.10;93.80;;;;;;4862177;29;20037;-91
2020/12/04 05:27:24;;;;;;;6.47;5.53;;;5.10;93.80;;;;;;4859706;29;20042;-91
2020/12/04 05:29:53;;;;;;;6.27;4.50;;;5.10;93.80;;;;;;4873202;29;20036;-88
2020/12/04 05:32:21;;;;;;;8.10;5.07;;;5.00;93.80;;;;;;4853919;29;20056;-89
2020/12/04 05:34:48;;;;;;;8.57;5.20;;;5.00;93.90;;;;;;4849567;29;20051;-89
2020/12/04 05:37:23;;;;;;;8.03;5.43;;;5.00;94.00;;;;;;4848129;29;20041;-88
2020/12/04 05:39:50;;;;;;;7.00;5.03;;;5.00;94.00;;;;;;4858809;29;20047;-89
2020/12/04 05:42:30;;;;;;;7.07;5.47;;;5.00;93.90;;;;;;4846195;29;20373;-87
2020/12/04 05:44:57;;;;;;;6.25;4.65;;;5.00;93.80;;;;;;4841750;29;20052;-90
2020/12/04 05:47:59;;;;;;;6.72;5.38;;;5.10;93.70;;;;;;4853922;29;20044;-91
2020/12/04 05:50:28;;;;;;;6.00;4.40;;;5.10;93.70;;;;;;4839947;29;20060;-88
2020/12/04 05:52:55;;;;;;;6.63;5.07;;;5.10;93.60;;;;;;4870294;29;20041;-86
2020/12/04 05:55:21;;;;;;;5.37;4.10;;;5.10;93.70;;;;;;4859409;29;20507;-88
2020/12/04 05:57:55;;;;;;;7.70;5.43;;;5.10;93.70;;;;;;4860796;29;20519;-90
2020/12/04 06:00:24;;;;;;;6.13;5.22;;;5.10;93.70;;;;;;4888376;29;20045;-85
2020/12/04 06:03:01;;;;;;;5.93;3.93;;;5.10;93.70;;;;;;4886821;29;20029;-87
2020/12/04 06:05:33;;;;;;;5.53;3.90;;;5.10;93.70;;;;;;4875394;29;20063;-88
2020/12/04 06:08:06;;;;;;;4.47;3.30;;;5.20;93.70;;;;;;4836379;29;20052;-86
2020/12/04 06:10:35;;;;;;;4.88;3.85;;;5.20;93.70;;;;;;4855406;29;20060;-90
2020/12/04 06:13:02;;;;;;;5.60;3.70;;;5.20;93.60;;;;;;4865486;29;20064;-91
2020/12/04 06:15:30;;;;;;;4.57;3.23;;;5.20;93.40;;;;;;4843934;29;20041;-90
2020/12/04 06:18:08;;;;;;;4.90;3.33;;;5.20;93.40;;;;;;4854057;29;20042;-86
2020/12/04 06:21:01;;;;;;;4.65;3.13;;;5.20;93.50;;;;;;4881785;29;20059;-90
2020/12/04 06:23:28;;;;;;;4.07;2.93;;;5.20;93.50;;;;;;4844015;29;20043;-91
2020/12/04 06:26:00;;;;;;;4.93;3.40;;;5.20;93.50;;;;;;4862765;29;20490;-87
2020/12/04 06:28:30;;;;;;;7.00;5.10;;;5.30;93.50;;;;;;4859446;29;20044;-89
2020/12/04 06:31:03;;;;;;;7.10;4.80;;;5.30;93.60;;;;;;4870035;29;20047;-88
2020/12/04 06:33:33;;;;;;;4.15;2.95;;;5.30;93.50;;;;;;4862261;29;20407;-85
2020/12/04 06:36:01;;;;;;;4.43;2.72;;;5.30;93.60;;;;;;4891823;29;20045;-89
2020/12/04 06:38:34;;;;;;;4.05;2.03;;;5.30;93.60;;;;;;4861823;29;20049;-84
2020/12/04 06:41:19;;;;;;;4.03;2.78;;;5.30;93.50;;;;;;4889020;29;20075;-85
2020/12/04 06:44:05;;;;;;;4.18;2.50;;;5.30;93.50;;;;;;4875868;29;20036;-86
2020/12/04 06:46:36;;;;;;;4.53;2.72;;;5.40;93.50;;;;;;4861178;29;20033;-85
2020/12/04 06:49:22;;;;;;;3.42;2.35;;;5.40;93.40;;;;;;4873630;29;20072;-84
2020/12/04 06:52:19;;;;;;;3.60;2.80;;;5.50;93.30;;;;;;4856100;29;20040;-84
2020/12/04 06:54:49;;;;;;;3.92;2.63;;;5.50;93.20;;;;;;4857981;29;20045;-85
2020/12/04 06:57:21;;;;;;;5.28;2.50;;;5.60;93.20;;;;;;4882377;29;20060;-85
2020/12/04 06:59:51;;;;;;;4.20;2.50;;;5.60;93.30;;;;;;4853325;29;20037;-85
2020/12/04 07:02:24;;;;;;;3.28;2.50;;;5.60;93.30;;;;;;4878418;29;20064;-84
2020/12/04 07:04:53;;;;;;;5.18;2.95;;;5.60;93.30;;;;;;4859336;29;20377;-85
2020/12/04 07:07:21;;;;;;;4.90;3.00;;;5.70;93.30;;;;;;4861113;29;20067;-84
2020/12/04 07:09:59;;;;;;;4.28;2.53;;;5.70;93.20;;;;;;4883325;29;20505;-85
2020/12/04 07:12:28;;;;;;;3.13;2.03;;;5.70;93.20;;;;;;4852480;29;20065;-84
2020/12/04 07:15:00;;;;;;;3.77;2.40;;;5.70;93.20;;;;;;4856210;29;20036;-85
2020/12/04 07:17:28;;;;;;;;;;;5.80;93.10;;;;;;4889682;29;20073;-85
2020/12/04 07:19:56;;;;;;;4.10;2.00;;;5.80;93.10;;;;;;4862096;29;19911;-84
2020/12/04 07:22:23;;;;;;;3.97;2.13;;;5.80;93.00;;;;;;4877520;29;20040;-84
2020/12/04 07:24:51;;;;;;;3.33;2.20;;;5.90;93.10;;;;;;4864032;29;20032;-89
2020/12/04 07:27:25;;;;;;;4.38;2.05;;;5.90;93.00;;;;;;4891305;29;20036;-85
2020/12/04 07:29:52;;;;;;;3.15;1.85;;;5.90;92.90;;;;;;4861549;29;20068;-89
2020/12/04 07:32:23;;;;;;;2.78;2.00;;;5.90;92.90;;;;;;4864126;29;20052;-85
2020/12/04 07:34:50;;;;;;;3.58;1.90;;;6.00;92.90;;;;;;4863993;29;20366;-89
2020/12/04 07:37:17;;;;;;;3.42;1.90;;;6.00;93.10;;;;;;4857118;29;20033;-88
2020/12/04 07:39:45;;;;;;;2.60;1.73;;;6.10;92.90;;;;;;4864281;29;20044;-89
2020/12/04 07:42:15;;;;;;;4.38;2.42;;;6.10;92.90;;;;;;4861180;29;20055;-88
2020/12/04 07:44:44;;;;;;;3.67;1.77;;;6.10;92.90;;;;;;4879504;29;20033;-88
2020/12/04 07:47:15;;;;;;;3.40;1.70;;;6.10;92.90;;;;;;4866320;29;20036;-90
2020/12/04 07:49:48;;;;;;;3.28;1.85;;;6.10;92.80;;;;;;4847967;29;20064;-86
2020/12/04 07:52:29;;;;;;;3.78;1.88;;;6.10;92.70;;;;;;4875759;29;20040;-90
2020/12/04 07:55:01;;;;;;;2.47;1.70;;;6.20;92.80;;;;;;4877470;29;20047;-86
2020/12/04 07:57:56;;;;;;;2.55;1.60;;;6.20;92.70;;;;;;4865767;29;20043;-90
2020/12/04 08:00:35;;;;;;;3.35;1.83;;;6.20;92.70;;;;;;4863126;29;20048;-90
2020/12/04 08:03:10;;;;;;;4.38;1.65;;;6.20;92.70;;;;;;4858906;29;20729;-88
2020/12/04 08:05:39;;;;;;;2.67;1.60;;;6.20;92.70;;;;;;4875856;29;20862;-88
2020/12/04 08:08:06;;;;;;;2.60;1.33;;;6.20;92.80;;;;;;4879141;29;20509;-86
2020/12/04 08:10:36;;;;;;;2.22;1.10;;;6.20;92.70;;;;;;4860778;29;20045;-87
2020/12/04 08:13:04;;;;;;;2.78;1.48;;;6.30;92.70;;;;;;4880505;29;20044;-85
2020/12/04 08:15:31;;;;;;;3.90;1.75;;;6.30;92.70;;;;;;4895034;29;20039;-85
2020/12/04 08:18:06;;;;;;;2.63;1.25;;;6.40;92.60;;;;;;4848406;29;20515;-85
2020/12/04 08:20:33;;;;;;;1.70;1.10;;;6.40;92.60;;;;;;4889870;29;20068;-87
2020/12/04 08:22:59;;;;;;;7.07;4.82;;;6.50;92.50;;;;;;4865310;29;20044;-86
2020/12/04 08:25:28;;;;;;;4.85;2.47;;;6.50;92.40;;;;;;4894860;29;20053;-86
2020/12/04 08:27:57;;;;;;;2.65;1.55;;;6.50;92.50;;;;;;4859733;29;20034;-88
2020/12/04 08:30:31;;;;;;;2.80;1.27;;;6.60;92.30;;;;;;4893591;29;20044;-88
2020/12/04 08:33:03;;;;;;;3.58;1.35;;;6.60;92.30;;;;;;4858321;29;20033;-88
2020/12/04 08:35:39;;;;;;;4.53;2.33;;;6.60;92.30;;;;;;4862877;29;20037;-88
2020/12/04 08:38:10;;;;;;;2.35;1.35;;;6.70;92.40;;;;;;4872107;29;20059;-87
2020/12/04 08:40:58;;;;;;;2.03;0.80;;;6.70;92.30;;;;;;4880951;29;20043;-90
2020/12/04 08:43:25;;;;;;;3.67;1.40;;;6.80;92.20;;;;;;4878084;29;20040;-87
2020/12/04 08:45:57;;;;;;;2.50;1.20;;;6.90;92.20;;;;;;4848318;29;20041;-88
2020/12/04 08:48:25;;;;;;;2.22;0.90;;;6.90;92.10;;;;;;4847648;29;20053;-88
2020/12/04 08:50:54;;;;;;;4.57;1.17;;;6.90;92.20;;;;;;4862524;29;20044;-89
2020/12/04 08:53:26;;;;;;;3.25;0.90;;;6.90;92.10;;;;;;4880278;29;20044;-88
2020/12/04 08:55:54;;;;;;;3.85;1.33;;;6.90;92.20;;;;;;4878320;29;20063;-86
2020/12/04 08:58:22;;;;;;;2.72;1.00;;;6.70;92.20;;;;;;4860282;29;20047;-87
2020/12/04 09:00:52;;;;;;;2.30;0.90;;;6.70;92.40;;;;;;4856962;29;20040;-81
2020/12/04 09:03:20;;;;;;;3.03;0.70;;;6.60;92.50;;;;;;4877397;29;20036;-81
2020/12/04 09:05:47;;;;;;;3.85;0.75;;;6.70;92.60;;;;;;4878084;29;20032;-80
2020/12/04 09:08:14;;;;;;;3.15;1.30;;;6.70;92.70;;;;;;4876654;29;20700;-81
2020/12/04 09:10:41;;;;;;;2.13;0.77;;;6.70;92.70;;;;;;4849333;29;20044;-81
2020/12/04 09:13:09;;;;;;;3.95;1.25;;;6.70;92.60;;;;;;4861200;29;20053;-81
2020/12/04 09:15:36;;;;;;;3.45;0.70;;;6.80;92.50;;;;;;4874660;29;20506;-87
2020/12/04 09:18:03;;;;;;;2.35;0.90;;;6.80;92.60;;;;;;4854343;29;20515;-87
2020/12/04 09:20:30;;;;;;;3.80;1.20;;;6.80;92.60;;;;;;4876049;29;20036;-85
2020/12/04 09:22:57;;;;;;;2.80;1.55;;;7.00;92.70;;;;;;4876705;29;20029;-85
2020/12/04 09:25:25;;;;;;;8.80;4.38;;;7.10;92.80;;;;;;4879361;29;20040;-88
2020/12/04 09:27:52;;;;;;;5.43;2.97;;;7.20;92.60;;;;;;4864468;29;20040;-85
2020/12/04 09:30:20;;;;;;;5.30;1.75;;;7.30;92.40;;;;;;4876760;29;20044;-86
2020/12/04 09:32:50;;;;;;;3.55;1.50;;;7.40;92.40;;;;;;4860815;29;20492;-85
2020/12/04 09:35:18;;;;;;;2.55;1.02;;;7.40;92.50;;;;;;4872289;29;20044;-88
2020/12/04 09:37:48;;;;;;;5.32;0.82;;;7.50;92.40;;;;;;4874640;29;20488;-86
2020/12/04 09:40:17;;;;;;;2.67;0.88;;;7.50;92.40;;;;;;4875073;29;20048;-86
2020/12/04 09:42:44;;;;;;;4.15;0.95;;;7.60;92.40;;;;;;4871859;29;20037;-87
2020/12/04 09:45:12;;;;;;;1.95;0.85;;;7.60;92.30;;;;;;4864011;29;20404;-88
2020/12/04 09:47:38;;;;;;;2.30;0.77;;;7.50;92.40;;;;;;4861827;29;20048;-84
2020/12/04 09:50:11;;;;;;;1.92;0.68;;;7.60;92.30;;;;;;4875622;29;20037;-87
2020/12/04 09:52:41;;;;;;;2.25;0.90;;;7.60;92.30;;;;;;4863182;29;20041;-84
2020/12/04 09:55:09;;;;;;;2.75;0.95;;;7.60;92.30;;;;;;4877271;29;20037;-89
2020/12/04 09:57:36;;;;;;;2.40;0.50;;;7.70;92.20;;;;;;4862984;29;20041;-88
2020/12/04 10:00:04;;;;;;;2.25;0.63;;;7.70;92.20;;;;;;4873562;29;20044;-85
2020/12/04 10:02:33;;;;;;;3.08;0.70;;;7.80;92.10;;;;;;4865070;29;20037;-87
2020/12/04 10:04:59;;;;;;;1.70;0.50;;;7.80;92.00;;;;;;4839321;29;20040;-86
2020/12/04 10:07:26;;;;;;;1.27;0.40;;;7.90;91.80;;;;;;4892295;29;20052;-90
2020/12/04 10:09:53;;;;;;;1.27;0.30;;;7.90;91.80;;;;;;4860509;29;20047;-85
2020/12/04 10:12:23;;;;;;;0.93;0.40;;;7.90;91.80;;;;;;4892890;29;20065;-90
2020/12/04 10:14:57;;;;;;;1.60;0.40;;;7.90;91.50;;;;;;4854026;29;20037;-91
2020/12/04 10:17:24;;;;;;;2.05;0.40;;;7.90;91.40;;;;;;4874016;29;20396;-89
2020/12/04 10:19:51;;;;;;;1.38;0.40;;;7.90;91.40;;;;;;4859769;29;20048;-89
2020/12/04 10:22:17;;;;;;;0.52;0.20;;;7.90;91.40;;;;;;4860514;29;20056;-81
2020/12/04 10:24:44;;;;;;;0.68;0.20;;;7.90;91.20;;;;;;4872483;29;20052;-82
2020/12/04 10:27:12;;;;;;;0.70;0.30;;;7.90;90.80;;;;;;4857772;29;20052;-81
2020/12/04 10:29:38;;;;;;;0.57;0.22;;;8.00;91.10;;;;;;4869192;29;20037;-81
2020/12/04 10:32:05;;;;;;;1.83;0.20;;;8.00;91.00;;;;;;4887282;29;20056;-84
2020/12/04 10:34:31;;;;;;;0.80;0.20;;;8.10;91.00;;;;;;4857078;29;20053;-83
2020/12/04 10:36:58;;;;;;;0.52;0.17;;;8.10;90.90;;;;;;4860901;29;20484;-84
2020/12/04 10:39:24;;;;;;;1.00;0.30;;;8.10;90.90;;;;;;4856977;29;20041;-85
2020/12/04 10:41:51;;;;;;;1.88;0.20;;;8.20;90.80;;;;;;4843916;29;20045;-86
2020/12/04 10:44:17;;;;;;;0.60;0.22;;;8.20;90.20;;;;;;4865728;29;20053;-82
2020/12/04 10:46:44;;;;;;;0.68;0.30;;;8.20;89.30;;;;;;4844854;29;20689;-84
2020/12/04 10:49:10;;;;;;;11.73;6.80;;;8.20;89.60;;;;;;4873594;29;20053;-84
2020/12/04 10:51:37;;;;;;;2.30;0.90;;;8.20;89.50;;;;;;4838423;29;20052;-83
2020/12/04 10:54:07;;;;;;;1.27;0.30;;;8.30;89.20;;;;;;4855989;29;20388;-80
2020/12/04 10:56:34;;;;;;;0.50;0.17;;;8.30;88.40;;;;;;4875406;29;20059;-79
2020/12/04 10:59:00;;;;;;;0.70;0.20;;;8.30;88.00;;;;;;4841075;29;20056;-86
2020/12/04 11:01:45;;;;;;;0.95;0.10;;;8.20;87.90;;;;;;4842322;29;20405;-81
2020/12/04 11:06:57;;;;;;;1.55;0.10;;;8.30;87.60;;;;;;4867786;29;20037;-88
2020/12/04 11:09:25;;;;;;;1.73;0.10;;;8.30;85.40;;;;;;4876132;29;20053;-85
2020/12/04 11:11:52;;;;;;;0.35;0.10;;;8.40;84.70;;;;;;4857118;29;20032;-83
2020/12/04 11:14:18;;;;;;;0.98;0.10;;;8.40;85.10;;;;;;4886364;29;20057;-81
2020/12/04 11:16:45;;;;;;;1.95;0.10;;;8.50;84.00;;;;;;4876514;29;20041;-82
2020/12/04 11:19:12;;;;;;;0.30;0.10;;;8.50;83.00;;;;;;4853920;29;20041;-88
2020/12/04 11:21:38;;;;;;;1.40;0.08;;;8.50;82.60;;;;;;4868488;29;20057;-80
2020/12/04 11:24:05;;;;;;;0.88;0.20;;;8.40;82.40;;;;;;4864426;29;20049;-80
2020/12/04 11:26:32;;;;;;;0.80;0.05;;;8.50;82.70;;;;;;4843411;29;20036;-80
2020/12/04 11:28:59;;;;;;;0.68;0.10;;;8.50;83.50;;;;;;4884600;29;20037;-81
2020/12/04 11:31:25;;;;;;;0.65;0.10;;;8.60;84.20;;;;;;4859199;29;20091;-80
2020/12/04 11:33:52;;;;;;;0.35;0.20;;;8.60;82.60;;;;;;4874471;29;20037;-80
2020/12/04 11:36:18;;;;;;;0.80;0.10;;;8.60;82.00;;;;;;4869970;29;20052;-81
2020/12/04 11:38:45;;;;;;;1.23;0.20;;;8.50;82.00;;;;;;4855525;29;20041;-80
2020/12/04 11:41:11;;;;;;;0.65;0.30;;;8.50;81.50;;;;;;4820327;29;20041;-81
2020/12/04 11:43:38;;;;;;;0.70;0.10;;;8.40;82.10;;;;;;4852038;29;20048;-80
2020/12/04 11:46:05;;;;;;;0.43;0.20;;;8.50;82.70;;;;;;4878853;29;20137;-79
2020/12/04 11:48:31;;;;;;;0.30;0.10;;;8.60;83.10;;;;;;4878612;29;20036;-81
2020/12/04 11:50:58;;;;;;;0.20;0.10;;;8.70;81.80;;;;;;4868778;29;20045;-81
2020/12/04 11:53:25;;;;;;;0.25;0.00;;;8.70;81.30;;;;;;4870511;29;20043;-80
2020/12/04 11:55:51;;;;;;;0.55;0.10;;;8.60;81.50;;;;;;4891307;29;20368;-83
2020/12/04 11:58:18;;;;;;;0.30;0.10;;;8.70;82.20;;;;;;4870731;29;20060;-87
2020/12/04 12:00:44;;;;;;;0.73;0.10;;;8.70;81.40;;;;;;4870043;29;20024;-81
2020/12/04 12:03:11;;;;;;;1.00;0.10;;;8.80;81.00;;;;;;4888712;29;20510;-80
2020/12/04 12:05:37;;;;;;;0.30;0.20;;;8.80;81.00;;;;;;4848009;29;20476;-79
2020/12/04 12:08:05;;;;;;;0.75;0.10;;;8.80;80.60;;;;;;4846064;29;20044;-83
2020/12/04 12:10:31;;;;;;;0.35;0.10;;;8.80;81.00;;;;;;4862856;29;20052;-83
2020/12/04 12:12:58;;;;;;;1.52;0.10;;;8.90;81.90;;;;;;4874648;29;20040;-79
2020/12/04 12:15:24;;;;;;;0.40;0.20;;;9.00;81.70;;;;;;4872304;29;20049;-79
2020/12/04 12:17:51;;;;;;;0.28;0.20;;;9.10;81.90;;;;;;4876157;29;20045;-79
2020/12/04 12:20:18;;;;;;;1.65;0.20;;;9.10;81.80;;;;;;4883015;29;20049;-78
2020/12/04 12:22:44;;;;;;;0.38;0.10;;;9.10;81.80;;;;;;4866951;29;20078;-78
2020/12/04 12:25:11;;;;;;;1.38;0.15;;;9.20;81.30;;;;;;4859711;29;20043;-79
2020/12/04 12:27:38;;;;;;;0.52;0.10;;;9.20;80.30;;;;;;4887828;29;20048;-79
2020/12/04 12:30:04;;;;;;;1.02;0.22;;;9.10;79.30;;;;;;4829482;29;20036;-80
2020/12/04 12:32:31;;;;;;;0.65;0.20;;;9.10;79.50;;;;;;4842047;29;20048;-83
2020/12/04 12:35:11;;;;;;;1.08;0.30;;;9.00;78.70;;;;;;4874177;29;20499;-83
2020/12/04 12:37:38;;;;;;;3.53;0.30;;;9.00;78.20;;;;;;4890796;29;20044;-83
2020/12/04 12:40:06;;;;;;;1.48;0.30;;;8.90;79.40;;;;;;4862269;29;20048;-84
2020/12/04 12:42:34;;;;;;;1.70;0.40;;;8.90;79.60;;;;;;4875710;29;20836;-82
2020/12/04 12:45:00;;;;;;;5.15;0.30;;;8.90;79.80;;;;;;4877320;29;20056;-85
2020/12/04 12:47:30;;;;;;;0.60;0.20;;;8.80;79.70;;;;;;4892832;29;20040;-83
2020/12/04 12:49:57;;;;;;;1.00;0.30;;;8.80;79.10;;;;;;4887411;29;20527;-85
2020/12/04 12:52:26;;;;;;;1.95;0.20;;;8.80;78.20;;;;;;4854123;29;20040;-86
2020/12/04 12:54:52;;;;;;;0.75;0.20;;;8.70;78.50;;;;;;4858814;29;20051;-86
2020/12/04 12:57:19;;;;;;;0.68;0.20;;;8.70;78.60;;;;;;4890065;29;20029;-85
2020/12/04 12:59:45;;;;;;;1.08;0.10;;;8.60;78.40;;;;;;4860784;29;20056;-84
2020/12/04 13:02:13;;;;;;;0.68;0.20;;;8.60;77.90;;;;;;4845828;29;20049;-80
2020/12/04 13:04:46;;;;;;;6.82;0.20;;;8.60;77.70;;;;;;4866726;29;20032;-85
2020/12/04 13:07:13;;;;;;;0.15;0.10;;;8.70;78.30;;;;;;4827462;29;20044;-85